Map

Track Data

SID SEASON NUMBER BASIN SUBBASIN NAME ISO_TIME NATURE LAT LON WMO_WIND WMO_PRES WMO_AGENCY TRACK_TYPE DIST2LAND LANDFALL IFLAG USA_AGENCY USA_ATCF_ID USA_LAT USA_LON USA_RECORD USA_STATUS USA_WIND USA_PRES USA_SSHS USA_R34_NE USA_R34_SE USA_R34_SW USA_R34_NW USA_R50_NE USA_R50_SE USA_R50_SW USA_R50_NW USA_R64_NE USA_R64_SE USA_R64_SW USA_R64_NW USA_POCI USA_ROCI USA_RMW USA_EYE TOKYO_LAT TOKYO_LON TOKYO_GRADE TOKYO_WIND TOKYO_PRES TOKYO_R50_DIR TOKYO_R50_LONG TOKYO_R50_SHORT TOKYO_R30_DIR TOKYO_R30_LONG TOKYO_R30_SHORT TOKYO_LAND CMA_LAT CMA_LON CMA_CAT CMA_WIND CMA_PRES HKO_LAT HKO_LON HKO_CAT HKO_WIND HKO_PRES NEWDELHI_LAT NEWDELHI_LON NEWDELHI_GRADE NEWDELHI_WIND NEWDELHI_PRES NEWDELHI_CI NEWDELHI_DP NEWDELHI_POCI REUNION_LAT REUNION_LON REUNION_TYPE REUNION_WIND REUNION_PRES REUNION_TNUM REUNION_CI REUNION_RMW REUNION_R34_NE REUNION_R34_SE REUNION_R34_SW REUNION_R34_NW REUNION_R50_NE REUNION_R50_SE REUNION_R50_SW REUNION_R50_NW REUNION_R64_NE REUNION_R64_SE REUNION_R64_SW REUNION_R64_NW BOM_LAT BOM_LON BOM_TYPE BOM_WIND BOM_PRES BOM_TNUM BOM_CI BOM_RMW BOM_R34_NE BOM_R34_SE BOM_R34_SW BOM_R34_NW BOM_R50_NE BOM_R50_SE BOM_R50_SW BOM_R50_NW BOM_R64_NE BOM_R64_SE BOM_R64_SW BOM_R64_NW BOM_ROCI BOM_POCI BOM_EYE BOM_POS_METHOD BOM_PRES_METHOD NADI_LAT NADI_LON NADI_CAT NADI_WIND NADI_PRES WELLINGTON_LAT WELLINGTON_LON WELLINGTON_WIND WELLINGTON_PRES DS824_LAT DS824_LON DS824_STAGE DS824_WIND DS824_PRES TD9636_LAT TD9636_LON TD9636_STAGE TD9636_WIND TD9636_PRES TD9635_LAT TD9635_LON TD9635_WIND TD9635_PRES TD9635_ROCI NEUMANN_LAT NEUMANN_LON NEUMANN_CLASS NEUMANN_WIND NEUMANN_PRES MLC_LAT MLC_LON MLC_CLASS MLC_WIND MLC_PRES USA_GUST BOM_GUST BOM_GUST_PER REUNION_GUST REUNION_GUST_PER USA_SEAHGT USA_SEARAD_NE USA_SEARAD_SE USA_SEARAD_SW USA_SEARAD_NW STORM_SPEED STORM_DIR
1891070S11425 1891 9 SI MM NOT_NAMED 1891-03-10 18:00:00 NR -10.7000 64.9000 main 1304 1298 __________O___ -1 -10.7000 64.9000 7 2 242
1891070S11425 1891 9 SI MM NOT_NAMED 1891-03-10 21:00:00 NR -10.7451 64.8061 main 1298 1282 __________P___ -1 -10.7451 64.8061 7 2 245
1891070S11425 1891 9 SI MM NOT_NAMED 1891-03-11 00:00:00 NR -10.8021 64.6797 main 1282 1261 __________P___ -1 -10.8021 64.6797 7 3 246
1891070S11425 1891 9 SI MM NOT_NAMED 1891-03-11 03:00:00 NR -10.8831 64.4886 main 1261 1233 __________P___ -1 -10.8831 64.4886 7 5 247
1891070S11425 1891 9 SI MM NOT_NAMED 1891-03-11 06:00:00 NR -11.0000 64.2000 main 1233 1190 __________O___ -1 -11.0000 64.2000 7 7 248
1891070S11425 1891 9 SI MM NOT_NAMED 1891-03-11 09:00:00 NR -11.1603 63.7936 main 1190 1152 __________P___ -1 -11.1603 63.7936 7 10 248
1891070S11425 1891 9 SI MM NOT_NAMED 1891-03-11 12:00:00 NR -11.3554 63.2976 main 1143 1096 __________P___ -1 -11.3554 63.2976 7 11 248
1891070S11425 1891 9 SI MM NOT_NAMED 1891-03-11 15:00:00 NR -11.5728 62.7528 main 1096 1045 __________P___ -1 -11.5728 62.7528 7 12 248
1891070S11425 1891 9 SI MM NOT_NAMED 1891-03-11 18:00:00 NR -11.8000 62.2000 main 1045 1002 __________O___ -1 -11.8000 62.2000 7 11 247
1891070S11425 1891 9 SI MM NOT_NAMED 1891-03-11 21:00:00 NR -12.0010 61.7237 main 1002 964 __________P___ -1 -12.0010 61.7237 7 10 246
1891070S11425 1891 9 SI MM NOT_NAMED 1891-03-12 00:00:00 NR -12.2116 61.2440 main 959 923 __________P___ -1 -12.2116 61.2440 7 11 245
1891070S11425 1891 9 SI MM NOT_NAMED 1891-03-12 03:00:00 NR -12.4415 60.7423 main 919 870 __________P___ -1 -12.4415 60.7423 7 11 244
1891070S11425 1891 9 SI MM NOT_NAMED 1891-03-12 06:00:00 NR -12.7000 60.2000 main 870 819 __________O___ -1 -12.7000 60.2000 7 12 244
1891070S11425 1891 9 SI MM NOT_NAMED 1891-03-12 09:00:00 NR -12.9839 59.6049 main 819 773 __________P___ -1 -12.9839 59.6049 7 13 244
1891070S11425 1891 9 SI MM NOT_NAMED 1891-03-12 12:00:00 NR -13.2972 58.9667 main 773 730 __________P___ -1 -13.2972 58.9667 7 14 243
1891070S11425 1891 9 SI MM NOT_NAMED 1891-03-12 15:00:00 NR -13.6368 58.2952 main 730 682 __________P___ -1 -13.6368 58.2952 7 15 242
1891070S11425 1891 9 SI MM NOT_NAMED 1891-03-12 18:00:00 NR -14.0000 57.6000 main 682 660 __________O___ -1 -14.0000 57.6000 7 15 246
1891070S11425 1891 9 SI MM NOT_NAMED 1891-03-12 21:00:00 NR -14.2451 56.8610 main 663 607 __________P___ -1 -14.2451 56.8610 7 15 250
1891070S11425 1891 9 SI MM NOT_NAMED 1891-03-13 00:00:00 NR -14.5312 56.1078 main 607 527 __________P___ -1 -14.5312 56.1078 7 16 244
1891070S11425 1891 9 SI MM NOT_NAMED 1891-03-13 03:00:00 NR -14.9516 55.3760 main 526 450 __________P___ -1 -14.9516 55.3760 7 17 232
1891070S11425 1891 9 SI MM NOT_NAMED 1891-03-13 06:00:00 NR -15.6000 54.7000 main 450 383 __________O___ -1 -15.6000 54.7000 7 22 221
1891070S11425 1891 9 SI MM NOT_NAMED 1891-03-13 09:00:00 NR -16.6080 53.8988 main 387 370 __________P___ -1 -16.6080 53.8988 7 27 213
1891070S11425 1891 9 SI MM NOT_NAMED 1891-03-13 12:00:00 NR -17.8394 53.1827 main 377 343 __________P___ -1 -17.8394 53.1827 7 28 204
1891070S11425 1891 9 SI MM NOT_NAMED 1891-03-13 15:00:00 NR -19.1757 52.6985 main 336 281 __________P___ -1 -19.1757 52.6985 7 27 192
1891070S11425 1891 9 SI MM NOT_NAMED 1891-03-13 18:00:00 NR -20.5000 52.6000 main 278 224 __________O___ -1 -20.5000 52.6000 7 27 171
1891070S11425 1891 9 SI MM NOT_NAMED 1891-03-13 21:00:00 NR -21.7817 53.1428 main 230 212 __________P___ -1 -21.7817 53.1428 7 29 151
1891070S11425 1891 9 SI MM NOT_NAMED 1891-03-14 00:00:00 NR -23.0072 54.0792 main 226 226 __________P___ -1 -23.0072 54.0792 7 30 141
1891070S11425 1891 9 SI MM NOT_NAMED 1891-03-14 03:00:00 NR -24.0780 55.1791 main 304 304 __________P___ -1 -24.0780 55.1791 7 27 134
1891070S11425 1891 9 SI MM NOT_NAMED 1891-03-14 06:00:00 NR -24.9000 56.2000 main 395 395 __________O___ -1 -24.9000 56.2000 7 20 132
1891070S11425 1891 9 SI MM NOT_NAMED 1891-03-14 09:00:00 NR -25.3769 56.7923 main 463 463 __________P___ -1 -25.3769 56.7923 7 12 127
1891070S11425 1891 9 SI MM NOT_NAMED 1891-03-14 12:00:00 NR -25.6155 57.2529 main 500 500 __________P___ -1 -25.6155 57.2529 7 8 114
1891070S11425 1891 9 SI MM NOT_NAMED 1891-03-14 15:00:00 NR -25.7216 57.6366 main 521 521 __________P___ -1 -25.7216 57.6366 7 7 105
1891070S11425 1891 9 SI MM NOT_NAMED 1891-03-14 18:00:00 NR -25.8000 58.0000 main 549 549 __________O___ -1 -25.8000 58.0000 7 8 112
1891070S11425 1891 9 SI MM NOT_NAMED 1891-03-14 21:00:00 NR -26.0149 58.4366 main 587 587 __________P___ -1 -26.0149 58.4366 7 9 118
1891070S11425 1891 9 SI MM NOT_NAMED 1891-03-15 00:00:00 NR -26.2220 58.8654 main 631 631 __________P___ -1 -26.2220 58.8654 7 9 118
1891070S11425 1891 9 SI MM NOT_NAMED 1891-03-15 03:00:00 NR -26.4181 59.2865 main 671 671 __________P___ -1 -26.4181 59.2865 7 8 117
1891070S11425 1891 9 SI MM NOT_NAMED 1891-03-15 06:00:00 NR -26.6000 59.7000 main 711 711 __________O___ -1 -26.6000 59.7000 7 8 115
1891070S11425 1891 9 SI MM NOT_NAMED 1891-03-15 09:00:00 NR -26.7641 60.1158 main 745 745 __________P___ -1 -26.7641 60.1158 7 8 113
1891070S11425 1891 9 SI MM NOT_NAMED 1891-03-15 12:00:00 NR -26.9147 60.5232 main 769 769 __________P___ -1 -26.9147 60.5232 7 8 112
1891070S11425 1891 9 SI MM NOT_NAMED 1891-03-15 15:00:00 NR -27.0579 60.9189 main 806 806 __________P___ -1 -27.0579 60.9189 7 7 112
1891070S11425 1891 9 SI MM NOT_NAMED 1891-03-15 18:00:00 NR -27.2000 61.3000 main 833 833 __________O___ -1 -27.2000 61.3000 7 7 114
1891070S11425 1891 9 SI MM NOT_NAMED 1891-03-15 21:00:00 NR -27.3493 61.6527 main 861 861 __________P___ -1 -27.3493 61.6527 7 7 116
1891070S11425 1891 9 SI MM NOT_NAMED 1891-03-16 00:00:00 NR -27.4991 61.9932 main 895 895 __________P___ -1 -27.4991 61.9932 7 7 116
1891070S11425 1891 9 SI MM NOT_NAMED 1891-03-16 03:00:00 NR -27.6493 62.3371 main 920 920 __________P___ -1 -27.6493 62.3371 7 7 116
1891070S11425 1891 9 SI MM NOT_NAMED 1891-03-16 06:00:00 NR -27.8000 62.7000 main 960 960 __________O___ -1 -27.8000 62.7000 7 8 114
1891070S11425 1891 9 SI MM NOT_NAMED 1891-03-16 09:00:00 NR -27.9584 63.1195 main 1000 1000 __________P___ -1 -27.9584 63.1195 7 8 113
1891070S11425 1891 9 SI MM NOT_NAMED 1891-03-16 12:00:00 NR -28.1154 63.5572 main 1038 1038 __________P___ -1 -28.1154 63.5572 7 8 112
1891070S11425 1891 9 SI MM NOT_NAMED 1891-03-16 15:00:00 NR -28.2646 63.9914 main 1079 1079 __________P___ -1 -28.2646 63.9914 7 8 111
1891070S11425 1891 9 SI MM NOT_NAMED 1891-03-16 18:00:00 NR -28.4000 64.4000 main 1112 1112 __________O___ -1 -28.4000 64.4000 7 7 110
1891070S11425 1891 9 SI MM NOT_NAMED 1891-03-16 21:00:00 NR -28.5174 64.7666 main 1145 1145 __________P___ -1 -28.5174 64.7666 7 7 110
1891070S11425 1891 9 SI MM NOT_NAMED 1891-03-17 00:00:00 NR -28.6200 65.0975 main 1173 1173 __________P___ -1 -28.6200 65.0975 7 6 109
1891070S11425 1891 9 SI MM NOT_NAMED 1891-03-17 03:00:00 NR -28.7126 65.4046 main 1201 1201 __________P___ -1 -28.7126 65.4046 7 6 109
1891070S11425 1891 9 SI MM NOT_NAMED 1891-03-17 06:00:00 NR -28.8000 65.7000 main 1229 __________O___ -1 -28.8000 65.7000 7 5 109

About IBTrACS Database

This database is a web-friendly format of International Best Track Archive for Climate Stewardship (IBTrACS), a global best track data archive curated by NOAA dating back to 1842.

Updated: 2021-11-26